sensor_id;sensor_type;location;lat;lon;timestamp;P1;durP1;ratioP1;P2;durP2;ratioP2
20004;SDS011;69160;45.498;-73.582;2023-04-24T00:00:57;0.90;;;0.67;;
20004;SDS011;69160;45.498;-73.582;2023-04-24T00:03:26;2.20;;;0.70;;
20004;SDS011;69160;45.498;-73.582;2023-04-24T00:05:53;1.17;;;0.80;;
20004;SDS011;69160;45.498;-73.582;2023-04-24T00:08:19;3.03;;;1.20;;
20004;SDS011;69160;45.498;-73.582;2023-04-24T00:10:47;1.80;;;0.83;;
20004;SDS011;69160;45.498;-73.582;2023-04-24T00:13:13;3.77;;;0.90;;
20004;SDS011;69160;45.498;-73.582;2023-04-24T00:15:40;1.37;;;0.80;;
20004;SDS011;69160;45.498;-73.582;2023-04-24T00:18:06;1.23;;;0.80;;
20004;SDS011;69160;45.498;-73.582;2023-04-24T00:20:32;1.03;;;0.80;;
20004;SDS011;69160;45.498;-73.582;2023-04-24T00:23:00;2.30;;;0.90;;
20004;SDS011;69160;45.498;-73.582;2023-04-24T00:25:26;1.27;;;0.70;;
20004;SDS011;69160;45.498;-73.582;2023-04-24T00:27:52;2.50;;;1.20;;
20004;SDS011;69160;45.498;-73.582;2023-04-24T00:30:19;1.57;;;1.07;;
20004;SDS011;69160;45.498;-73.582;2023-04-24T00:32:45;1.63;;;0.80;;
20004;SDS011;69160;45.498;-73.582;2023-04-24T00:35:11;1.40;;;0.90;;
20004;SDS011;69160;45.498;-73.582;2023-04-24T00:37:37;2.10;;;0.97;;
20004;SDS011;69160;45.498;-73.582;2023-04-24T00:40:04;1.43;;;0.90;;
20004;SDS011;69160;45.498;-73.582;2023-04-24T00:42:31;1.00;;;0.90;;
20004;SDS011;69160;45.498;-73.582;2023-04-24T00:44:58;0.87;;;0.80;;
20004;SDS011;69160;45.498;-73.582;2023-04-24T00:47:25;1.63;;;0.70;;
20004;SDS011;69160;45.498;-73.582;2023-04-24T00:49:53;1.20;;;0.70;;
20004;SDS011;69160;45.498;-73.582;2023-04-24T00:52:19;0.90;;;0.80;;
20004;SDS011;69160;45.498;-73.582;2023-04-24T00:54:49;0.80;;;0.70;;
20004;SDS011;69160;45.498;-73.582;2023-04-24T00:57:15;1.10;;;0.80;;
20004;SDS011;69160;45.498;-73.582;2023-04-24T00:59:42;1.80;;;0.83;;
20004;SDS011;69160;45.498;-73.582;2023-04-24T01:02:09;1.60;;;1.07;;
20004;SDS011;69160;45.498;-73.582;2023-04-24T01:04:36;1.60;;;1.10;;
20004;SDS011;69160;45.498;-73.582;2023-04-24T01:07:03;1.63;;;1.20;;
20004;SDS011;69160;45.498;-73.582;2023-04-24T01:09:35;1.13;;;0.73;;
20004;SDS011;69160;45.498;-73.582;2023-04-24T01:12:03;5.70;;;0.90;;
20004;SDS011;69160;45.498;-73.582;2023-04-24T01:14:29;0.80;;;0.80;;
20004;SDS011;69160;45.498;-73.582;2023-04-24T01:16:56;0.80;;;0.70;;
20004;SDS011;69160;45.498;-73.582;2023-04-24T01:19:22;1.03;;;0.80;;
20004;SDS011;69160;45.498;-73.582;2023-04-24T01:21:50;1.57;;;1.00;;
20004;SDS011;69160;45.498;-73.582;2023-04-24T01:24:19;1.70;;;0.80;;
20004;SDS011;69160;45.498;-73.582;2023-04-24T01:26:45;1.97;;;0.90;;
20004;SDS011;69160;45.498;-73.582;2023-04-24T01:29:12;2.07;;;0.70;;
20004;SDS011;69160;45.498;-73.582;2023-04-24T01:31:39;2.90;;;0.70;;
20004;SDS011;69160;45.498;-73.582;2023-04-24T01:34:05;0.90;;;0.70;;
20004;SDS011;69160;45.498;-73.582;2023-04-24T01:36:33;0.80;;;0.60;;
20004;SDS011;69160;45.498;-73.582;2023-04-24T01:39:01;2.17;;;0.80;;
20004;SDS011;69160;45.498;-73.582;2023-04-24T01:41:29;1.50;;;0.67;;
20004;SDS011;69160;45.498;-73.582;2023-04-24T01:43:56;1.37;;;0.70;;
20004;SDS011;69160;45.498;-73.582;2023-04-24T01:46:23;1.00;;;0.80;;
20004;SDS011;69160;45.498;-73.582;2023-04-24T01:48:50;1.37;;;0.80;;
20004;SDS011;69160;45.498;-73.582;2023-04-24T01:51:17;0.87;;;0.80;;
20004;SDS011;69160;45.498;-73.582;2023-04-24T01:53:43;1.27;;;0.90;;
20004;SDS011;69160;45.498;-73.582;2023-04-24T01:56:10;1.30;;;0.90;;
20004;SDS011;69160;45.498;-73.582;2023-04-24T01:58:36;2.30;;;1.10;;
20004;SDS011;69160;45.498;-73.582;2023-04-24T02:01:03;1.13;;;0.70;;
20004;SDS011;69160;45.498;-73.582;2023-04-24T02:03:29;3.07;;;0.90;;
20004;SDS011;69160;45.498;-73.582;2023-04-24T02:05:55;0.80;;;0.70;;
20004;SDS011;69160;45.498;-73.582;2023-04-24T02:08:21;1.73;;;1.00;;
20004;SDS011;69160;45.498;-73.582;2023-04-24T02:10:47;0.63;;;0.60;;
20004;SDS011;69160;45.498;-73.582;2023-04-24T02:13:14;0.70;;;0.70;;
20004;SDS011;69160;45.498;-73.582;2023-04-24T02:15:40;1.77;;;0.83;;
20004;SDS011;69160;45.498;-73.582;2023-04-24T02:18:06;1.00;;;0.73;;
20004;SDS011;69160;45.498;-73.582;2023-04-24T02:20:32;0.80;;;0.70;;
20004;SDS011;69160;45.498;-73.582;2023-04-24T02:23:02;0.93;;;0.70;;
20004;SDS011;69160;45.498;-73.582;2023-04-24T02:25:28;0.80;;;0.53;;
20004;SDS011;69160;45.498;-73.582;2023-04-24T02:27:54;0.90;;;0.77;;
20004;SDS011;69160;45.498;-73.582;2023-04-24T02:30:20;1.13;;;0.77;;
20004;SDS011;69160;45.498;-73.582;2023-04-24T02:32:46;0.73;;;0.70;;
20004;SDS011;69160;45.498;-73.582;2023-04-24T02:35:12;1.20;;;0.80;;
20004;SDS011;69160;45.498;-73.582;2023-04-24T02:37:38;1.70;;;0.70;;
20004;SDS011;69160;45.498;-73.582;2023-04-24T02:40:05;2.03;;;0.60;;
20004;SDS011;69160;45.498;-73.582;2023-04-24T02:42:32;1.40;;;0.90;;
20004;SDS011;69160;45.498;-73.582;2023-04-24T02:44:58;1.20;;;0.70;;
20004;SDS011;69160;45.498;-73.582;2023-04-24T02:47:24;0.83;;;0.63;;
20004;SDS011;69160;45.498;-73.582;2023-04-24T02:49:51;1.83;;;0.60;;
20004;SDS011;69160;45.498;-73.582;2023-04-24T02:52:17;1.73;;;0.70;;
20004;SDS011;69160;45.498;-73.582;2023-04-24T02:54:43;0.60;;;0.53;;
20004;SDS011;69160;45.498;-73.582;2023-04-24T02:57:09;0.90;;;0.70;;
20004;SDS011;69160;45.498;-73.582;2023-04-24T02:59:35;0.90;;;0.83;;
20004;SDS011;69160;45.498;-73.582;2023-04-24T03:02:02;1.33;;;0.67;;
20004;SDS011;69160;45.498;-73.582;2023-04-24T03:04:28;1.10;;;0.57;;
20004;SDS011;69160;45.498;-73.582;2023-04-24T03:06:54;0.73;;;0.60;;
20004;SDS011;69160;45.498;-73.582;2023-04-24T03:09:21;1.00;;;0.80;;
20004;SDS011;69160;45.498;-73.582;2023-04-24T03:11:47;0.80;;;0.70;;
20004;SDS011;69160;45.498;-73.582;2023-04-24T03:14:15;1.23;;;0.80;;
20004;SDS011;69160;45.498;-73.582;2023-04-24T03:16:41;0.70;;;0.60;;
20004;SDS011;69160;45.498;-73.582;2023-04-24T03:19:07;1.17;;;0.60;;
20004;SDS011;69160;45.498;-73.582;2023-04-24T03:21:34;1.13;;;0.70;;
20004;SDS011;69160;45.498;-73.582;2023-04-24T03:24:01;1.03;;;0.80;;
20004;SDS011;69160;45.498;-73.582;2023-04-24T03:26:27;1.37;;;0.80;;
20004;SDS011;69160;45.498;-73.582;2023-04-24T03:28:53;1.27;;;0.70;;
20004;SDS011;69160;45.498;-73.582;2023-04-24T03:31:19;1.00;;;0.80;;
20004;SDS011;69160;45.498;-73.582;2023-04-24T03:33:46;0.87;;;0.67;;
20004;SDS011;69160;45.498;-73.582;2023-04-24T03:36:12;0.70;;;0.60;;
20004;SDS011;69160;45.498;-73.582;2023-04-24T03:38:38;1.13;;;0.60;;
20004;SDS011;69160;45.498;-73.582;2023-04-24T03:41:04;0.90;;;0.60;;
20004;SDS011;69160;45.498;-73.582;2023-04-24T03:43:30;0.80;;;0.60;;
20004;SDS011;69160;45.498;-73.582;2023-04-24T03:45:58;1.97;;;0.90;;
20004;SDS011;69160;45.498;-73.582;2023-04-24T03:48:24;1.67;;;0.60;;
20004;SDS011;69160;45.498;-73.582;2023-04-24T03:50:51;0.67;;;0.60;;
20004;SDS011;69160;45.498;-73.582;2023-04-24T03:53:17;0.80;;;0.73;;
20004;SDS011;69160;45.498;-73.582;2023-04-24T03:55:45;0.80;;;0.70;;
20004;SDS011;69160;45.498;-73.582;2023-04-24T03:58:11;1.00;;;0.60;;
20004;SDS011;69160;45.498;-73.582;2023-04-24T04:00:39;1.00;;;0.80;;
20004;SDS011;69160;45.498;-73.582;2023-04-24T04:03:06;0.60;;;0.50;;
20004;SDS011;69160;45.498;-73.582;2023-04-24T04:05:32;1.33;;;0.60;;
20004;SDS011;69160;45.498;-73.582;2023-04-24T04:07:58;1.00;;;0.70;;
20004;SDS011;69160;45.498;-73.582;2023-04-24T04:10:24;0.90;;;0.60;;
20004;SDS011;69160;45.498;-73.582;2023-04-24T04:12:50;0.60;;;0.50;;
20004;SDS011;69160;45.498;-73.582;2023-04-24T04:15:16;0.90;;;0.67;;
20004;SDS011;69160;45.498;-73.582;2023-04-24T04:17:43;0.83;;;0.70;;
20004;SDS011;69160;45.498;-73.582;2023-04-24T04:20:10;0.73;;;0.53;;
20004;SDS011;69160;45.498;-73.582;2023-04-24T04:22:37;1.40;;;0.70;;
20004;SDS011;69160;45.498;-73.582;2023-04-24T04:25:03;1.27;;;0.70;;
20004;SDS011;69160;45.498;-73.582;2023-04-24T04:27:30;1.33;;;0.40;;
20004;SDS011;69160;45.498;-73.582;2023-04-24T04:30:00;1.10;;;0.70;;
20004;SDS011;69160;45.498;-73.582;2023-04-24T04:32:33;0.70;;;0.70;;
20004;SDS011;69160;45.498;-73.582;2023-04-24T04:35:02;1.00;;;0.63;;
20004;SDS011;69160;45.498;-73.582;2023-04-24T04:37:32;0.80;;;0.60;;
20004;SDS011;69160;45.498;-73.582;2023-04-24T04:39:59;1.00;;;0.73;;
20004;SDS011;69160;45.498;-73.582;2023-04-24T04:42:26;0.80;;;0.57;;
20004;SDS011;69160;45.498;-73.582;2023-04-24T04:44:53;0.93;;;0.70;;
20004;SDS011;69160;45.498;-73.582;2023-04-24T04:47:21;0.77;;;0.67;;
20004;SDS011;69160;45.498;-73.582;2023-04-24T04:49:48;0.60;;;0.50;;
20004;SDS011;69160;45.498;-73.582;2023-04-24T04:52:16;0.83;;;0.60;;
20004;SDS011;69160;45.498;-73.582;2023-04-24T04:54:43;0.80;;;0.60;;
20004;SDS011;69160;45.498;-73.582;2023-04-24T04:57:10;1.00;;;0.60;;
20004;SDS011;69160;45.498;-73.582;2023-04-24T04:59:37;0.70;;;0.70;;
20004;SDS011;69160;45.498;-73.582;2023-04-24T05:02:03;1.60;;;0.47;;
20004;SDS011;69160;45.498;-73.582;2023-04-24T05:04:29;0.90;;;0.60;;
20004;SDS011;69160;45.498;-73.582;2023-04-24T05:06:56;1.37;;;0.70;;
20004;SDS011;69160;45.498;-73.582;2023-04-24T05:09:22;0.60;;;0.50;;
20004;SDS011;69160;45.498;-73.582;2023-04-24T05:11:48;1.03;;;0.57;;
20004;SDS011;69160;45.498;-73.582;2023-04-24T05:14:14;0.60;;;0.57;;
20004;SDS011;69160;45.498;-73.582;2023-04-24T05:16:43;1.00;;;0.60;;
20004;SDS011;69160;45.498;-73.582;2023-04-24T05:19:09;0.90;;;0.70;;
20004;SDS011;69160;45.498;-73.582;2023-04-24T05:21:37;0.87;;;0.53;;
20004;SDS011;69160;45.498;-73.582;2023-04-24T05:24:04;0.70;;;0.57;;
20004;SDS011;69160;45.498;-73.582;2023-04-24T05:26:30;0.70;;;0.60;;
20004;SDS011;69160;45.498;-73.582;2023-04-24T05:28:57;1.17;;;0.60;;
20004;SDS011;69160;45.498;-73.582;2023-04-24T05:31:23;1.40;;;0.70;;
20004;SDS011;69160;45.498;-73.582;2023-04-24T05:33:50;0.80;;;0.40;;
20004;SDS011;69160;45.498;-73.582;2023-04-24T05:36:16;0.80;;;0.60;;
20004;SDS011;69160;45.498;-73.582;2023-04-24T05:38:42;0.70;;;0.50;;
20004;SDS011;69160;45.498;-73.582;2023-04-24T05:41:09;1.10;;;0.57;;
20004;SDS011;69160;45.498;-73.582;2023-04-24T05:43:35;0.60;;;0.60;;
20004;SDS011;69160;45.498;-73.582;2023-04-24T05:46:01;0.63;;;0.50;;
20004;SDS011;69160;45.498;-73.582;2023-04-24T05:48:27;0.60;;;0.50;;
20004;SDS011;69160;45.498;-73.582;2023-04-24T05:50:53;0.93;;;0.63;;
20004;SDS011;69160;45.498;-73.582;2023-04-24T05:53:20;1.13;;;0.57;;
20004;SDS011;69160;45.498;-73.582;2023-04-24T05:55:46;2.30;;;0.70;;
20004;SDS011;69160;45.498;-73.582;2023-04-24T05:58:13;0.60;;;0.60;;
20004;SDS011;69160;45.498;-73.582;2023-04-24T06:00:39;0.87;;;0.60;;
20004;SDS011;69160;45.498;-73.582;2023-04-24T06:03:07;1.33;;;1.00;;
20004;SDS011;69160;45.498;-73.582;2023-04-24T06:05:34;0.60;;;0.60;;
20004;SDS011;69160;45.498;-73.582;2023-04-24T06:08:00;0.70;;;0.70;;
20004;SDS011;69160;45.498;-73.582;2023-04-24T06:10:26;1.00;;;0.87;;
20004;SDS011;69160;45.498;-73.582;2023-04-24T06:12:52;1.33;;;0.83;;
20004;SDS011;69160;45.498;-73.582;2023-04-24T06:15:21;1.13;;;0.63;;
20004;SDS011;69160;45.498;-73.582;2023-04-24T06:17:47;0.77;;;0.63;;
20004;SDS011;69160;45.498;-73.582;2023-04-24T06:20:13;0.70;;;0.67;;
20004;SDS011;69160;45.498;-73.582;2023-04-24T06:22:40;1.73;;;0.90;;
20004;SDS011;69160;45.498;-73.582;2023-04-24T06:25:06;0.60;;;0.50;;
20004;SDS011;69160;45.498;-73.582;2023-04-24T06:27:32;0.60;;;0.60;;
20004;SDS011;69160;45.498;-73.582;2023-04-24T06:29:59;0.80;;;0.73;;
20004;SDS011;69160;45.498;-73.582;2023-04-24T06:32:25;0.90;;;0.70;;
20004;SDS011;69160;45.498;-73.582;2023-04-24T06:34:52;0.90;;;0.67;;
20004;SDS011;69160;45.498;-73.582;2023-04-24T06:37:19;0.60;;;0.50;;
20004;SDS011;69160;45.498;-73.582;2023-04-24T06:39:46;0.70;;;0.60;;
20004;SDS011;69160;45.498;-73.582;2023-04-24T06:42:12;0.73;;;0.60;;
20004;SDS011;69160;45.498;-73.582;2023-04-24T06:44:38;1.80;;;0.60;;
20004;SDS011;69160;45.498;-73.582;2023-04-24T06:47:08;0.90;;;0.80;;
20004;SDS011;69160;45.498;-73.582;2023-04-24T06:49:36;0.80;;;0.80;;
20004;SDS011;69160;45.498;-73.582;2023-04-24T06:52:02;1.00;;;0.83;;
20004;SDS011;69160;45.498;-73.582;2023-04-24T06:54:29;0.70;;;0.60;;
20004;SDS011;69160;45.498;-73.582;2023-04-24T06:56:56;0.70;;;0.70;;
20004;SDS011;69160;45.498;-73.582;2023-04-24T06:59:26;0.70;;;0.70;;
20004;SDS011;69160;45.498;-73.582;2023-04-24T07:01:53;0.70;;;0.60;;
20004;SDS011;69160;45.498;-73.582;2023-04-24T07:04:20;0.67;;;0.67;;
20004;SDS011;69160;45.498;-73.582;2023-04-24T07:06:46;0.83;;;0.73;;
20004;SDS011;69160;45.498;-73.582;2023-04-24T07:09:14;0.60;;;0.60;;
20004;SDS011;69160;45.498;-73.582;2023-04-24T07:11:44;0.83;;;0.83;;
20004;SDS011;69160;45.498;-73.582;2023-04-24T07:14:10;0.70;;;0.60;;
20004;SDS011;69160;45.498;-73.582;2023-04-24T07:16:37;0.90;;;0.83;;
20004;SDS011;69160;45.498;-73.582;2023-04-24T07:19:03;1.77;;;0.80;;
20004;SDS011;69160;45.498;-73.582;2023-04-24T07:21:30;0.90;;;0.70;;
20004;SDS011;69160;45.498;-73.582;2023-04-24T07:23:57;0.80;;;0.73;;
20004;SDS011;69160;45.498;-73.582;2023-04-24T07:26:24;1.40;;;0.90;;
20004;SDS011;69160;45.498;-73.582;2023-04-24T07:28:51;0.77;;;0.70;;
20004;SDS011;69160;45.498;-73.582;2023-04-24T07:31:18;1.00;;;0.90;;
20004;SDS011;69160;45.498;-73.582;2023-04-24T07:33:44;0.90;;;0.90;;
20004;SDS011;69160;45.498;-73.582;2023-04-24T07:36:11;0.80;;;0.80;;
20004;SDS011;69160;45.498;-73.582;2023-04-24T07:38:41;0.80;;;0.80;;
20004;SDS011;69160;45.498;-73.582;2023-04-24T07:41:11;0.80;;;0.70;;
20004;SDS011;69160;45.498;-73.582;2023-04-24T07:43:38;0.90;;;0.90;;
20004;SDS011;69160;45.498;-73.582;2023-04-24T07:46:04;0.70;;;0.67;;
20004;SDS011;69160;45.498;-73.582;2023-04-24T07:48:30;1.00;;;0.63;;
20004;SDS011;69160;45.498;-73.582;2023-04-24T07:50:57;1.10;;;0.90;;
20004;SDS011;69160;45.498;-73.582;2023-04-24T07:53:23;0.60;;;0.60;;
20004;SDS011;69160;45.498;-73.582;2023-04-24T07:55:49;0.80;;;0.80;;
20004;SDS011;69160;45.498;-73.582;2023-04-24T07:58:15;0.97;;;0.80;;
20004;SDS011;69160;45.498;-73.582;2023-04-24T08:00:41;0.73;;;0.60;;
20004;SDS011;69160;45.498;-73.582;2023-04-24T08:03:08;0.80;;;0.73;;
20004;SDS011;69160;45.498;-73.582;2023-04-24T08:05:34;0.80;;;0.80;;
20004;SDS011;69160;45.498;-73.582;2023-04-24T08:08:00;1.30;;;0.83;;
20004;SDS011;69160;45.498;-73.582;2023-04-24T08:10:26;1.20;;;1.00;;
20004;SDS011;69160;45.498;-73.582;2023-04-24T08:12:53;0.87;;;0.87;;
20004;SDS011;69160;45.498;-73.582;2023-04-24T08:15:20;1.20;;;1.00;;
20004;SDS011;69160;45.498;-73.582;2023-04-24T08:17:46;0.70;;;0.70;;
20004;SDS011;69160;45.498;-73.582;2023-04-24T08:20:12;0.70;;;0.70;;
20004;SDS011;69160;45.498;-73.582;2023-04-24T08:22:39;0.90;;;0.90;;
20004;SDS011;69160;45.498;-73.582;2023-04-24T08:25:06;0.80;;;0.73;;
20004;SDS011;69160;45.498;-73.582;2023-04-24T08:27:33;1.40;;;0.90;;
20004;SDS011;69160;45.498;-73.582;2023-04-24T08:29:59;1.00;;;0.70;;
20004;SDS011;69160;45.498;-73.582;2023-04-24T08:32:25;0.80;;;0.80;;
20004;SDS011;69160;45.498;-73.582;2023-04-24T08:34:55;1.10;;;1.00;;
20004;SDS011;69160;45.498;-73.582;2023-04-24T08:37:22;1.10;;;0.77;;
20004;SDS011;69160;45.498;-73.582;2023-04-24T08:39:49;1.03;;;0.93;;
20004;SDS011;69160;45.498;-73.582;2023-04-24T08:42:16;0.73;;;0.53;;
20004;SDS011;69160;45.498;-73.582;2023-04-24T08:44:44;1.20;;;0.87;;
20004;SDS011;69160;45.498;-73.582;2023-04-24T08:47:10;0.63;;;0.63;;
20004;SDS011;69160;45.498;-73.582;2023-04-24T08:49:37;1.27;;;0.90;;
20004;SDS011;69160;45.498;-73.582;2023-04-24T08:52:04;0.67;;;0.67;;
20004;SDS011;69160;45.498;-73.582;2023-04-24T08:54:31;1.23;;;1.03;;
20004;SDS011;69160;45.498;-73.582;2023-04-24T08:57:00;1.10;;;0.73;;
20004;SDS011;69160;45.498;-73.582;2023-04-24T08:59:29;1.00;;;0.77;;
20004;SDS011;69160;45.498;-73.582;2023-04-24T09:01:56;1.07;;;0.90;;
20004;SDS011;69160;45.498;-73.582;2023-04-24T09:04:23;0.90;;;0.90;;
20004;SDS011;69160;45.498;-73.582;2023-04-24T09:06:57;0.83;;;0.83;;
20004;SDS011;69160;45.498;-73.582;2023-04-24T09:09:24;1.00;;;0.80;;
20004;SDS011;69160;45.498;-73.582;2023-04-24T09:11:51;1.27;;;1.00;;
20004;SDS011;69160;45.498;-73.582;2023-04-24T09:14:20;1.00;;;0.90;;
20004;SDS011;69160;45.498;-73.582;2023-04-24T09:16:48;1.10;;;1.00;;
20004;SDS011;69160;45.498;-73.582;2023-04-24T09:19:17;0.80;;;0.80;;
20004;SDS011;69160;45.498;-73.582;2023-04-24T09:21:45;1.00;;;0.90;;
20004;SDS011;69160;45.498;-73.582;2023-04-24T09:24:15;1.10;;;1.00;;
20004;SDS011;69160;45.498;-73.582;2023-04-24T09:26:43;2.63;;;0.97;;
20004;SDS011;69160;45.498;-73.582;2023-04-24T09:29:14;1.30;;;1.00;;
20004;SDS011;69160;45.498;-73.582;2023-04-24T09:31:42;1.00;;;0.90;;
20004;SDS011;69160;45.498;-73.582;2023-04-24T09:34:08;0.90;;;0.83;;
20004;SDS011;69160;45.498;-73.582;2023-04-24T09:36:36;1.53;;;1.20;;
20004;SDS011;69160;45.498;-73.582;2023-04-24T09:39:04;1.27;;;0.90;;
20004;SDS011;69160;45.498;-73.582;2023-04-24T09:41:33;1.20;;;1.10;;
20004;SDS011;69160;45.498;-73.582;2023-04-24T09:44:15;1.00;;;0.90;;
20004;SDS011;69160;45.498;-73.582;2023-04-24T09:46:49;1.43;;;0.83;;
20004;SDS011;69160;45.498;-73.582;2023-04-24T09:49:20;1.00;;;0.90;;
20004;SDS011;69160;45.498;-73.582;2023-04-24T09:51:50;0.80;;;0.80;;
20004;SDS011;69160;45.498;-73.582;2023-04-24T09:54:17;1.10;;;1.00;;
20004;SDS011;69160;45.498;-73.582;2023-04-24T09:56:49;1.40;;;1.13;;
20004;SDS011;69160;45.498;-73.582;2023-04-24T09:59:19;0.80;;;0.80;;
20004;SDS011;69160;45.498;-73.582;2023-04-24T10:01:45;1.03;;;0.93;;
20004;SDS011;69160;45.498;-73.582;2023-04-24T10:04:24;1.30;;;1.20;;
20004;SDS011;69160;45.498;-73.582;2023-04-24T10:06:52;1.03;;;0.90;;
20004;SDS011;69160;45.498;-73.582;2023-04-24T10:09:20;1.57;;;1.13;;
20004;SDS011;69160;45.498;-73.582;2023-04-24T10:11:52;1.10;;;1.00;;
20004;SDS011;69160;45.498;-73.582;2023-04-24T10:14:23;1.20;;;1.10;;
20004;SDS011;69160;45.498;-73.582;2023-04-24T10:16:52;1.83;;;1.20;;
20004;SDS011;69160;45.498;-73.582;2023-04-24T10:19:20;1.00;;;0.83;;
20004;SDS011;69160;45.498;-73.582;2023-04-24T10:21:46;1.33;;;1.00;;
20004;SDS011;69160;45.498;-73.582;2023-04-24T10:24:13;1.10;;;1.00;;
20004;SDS011;69160;45.498;-73.582;2023-04-24T10:26:41;1.20;;;1.10;;
20004;SDS011;69160;45.498;-73.582;2023-04-24T10:29:07;1.43;;;1.30;;
20004;SDS011;69160;45.498;-73.582;2023-04-24T10:31:37;1.20;;;1.10;;
20004;SDS011;69160;45.498;-73.582;2023-04-24T10:34:04;1.20;;;1.10;;
20004;SDS011;69160;45.498;-73.582;2023-04-24T10:36:35;1.27;;;1.10;;
20004;SDS011;69160;45.498;-73.582;2023-04-24T10:39:07;1.10;;;0.87;;
20004;SDS011;69160;45.498;-73.582;2023-04-24T10:41:37;0.97;;;0.87;;
20004;SDS011;69160;45.498;-73.582;2023-04-24T10:44:04;0.70;;;0.70;;
20004;SDS011;69160;45.498;-73.582;2023-04-24T10:46:35;1.10;;;1.00;;
20004;SDS011;69160;45.498;-73.582;2023-04-24T10:49:05;1.07;;;0.97;;
20004;SDS011;69160;45.498;-73.582;2023-04-24T10:54:28;0.83;;;0.77;;
20004;SDS011;69160;45.498;-73.582;2023-04-24T10:57:37;1.10;;;1.00;;
20004;SDS011;69160;45.498;-73.582;2023-04-24T10:59:45;1.37;;;1.10;;
20004;SDS011;69160;45.498;-73.582;2023-04-24T11:02:16;1.13;;;1.03;;
20004;SDS011;69160;45.498;-73.582;2023-04-24T11:04:43;1.73;;;1.23;;
20004;SDS011;69160;45.498;-73.582;2023-04-24T11:07:10;1.30;;;1.10;;
20004;SDS011;69160;45.498;-73.582;2023-04-24T11:09:37;1.40;;;1.13;;
20004;SDS011;69160;45.498;-73.582;2023-04-24T11:12:07;1.30;;;1.20;;
20004;SDS011;69160;45.498;-73.582;2023-04-24T11:17:35;1.00;;;0.90;;
20004;SDS011;69160;45.498;-73.582;2023-04-24T11:20:07;1.43;;;0.87;;
20004;SDS011;69160;45.498;-73.582;2023-04-24T11:22:35;1.60;;;1.23;;
20004;SDS011;69160;45.498;-73.582;2023-04-24T11:25:03;2.40;;;0.90;;
20004;SDS011;69160;45.498;-73.582;2023-04-24T11:27:30;2.10;;;1.20;;
20004;SDS011;69160;45.498;-73.582;2023-04-24T11:29:59;2.13;;;1.00;;
20004;SDS011;69160;45.498;-73.582;2023-04-24T11:35:14;1.23;;;1.13;;
20004;SDS011;69160;45.498;-73.582;2023-04-24T11:37:42;1.63;;;1.10;;
20004;SDS011;69160;45.498;-73.582;2023-04-24T11:40:17;1.00;;;0.90;;
20004;SDS011;69160;45.498;-73.582;2023-04-24T11:42:46;0.90;;;0.90;;
20004;SDS011;69160;45.498;-73.582;2023-04-24T11:45:14;1.37;;;1.00;;
20004;SDS011;69160;45.498;-73.582;2023-04-24T11:47:42;1.07;;;0.80;;
20004;SDS011;69160;45.498;-73.582;2023-04-24T11:50:12;1.37;;;1.07;;
20004;SDS011;69160;45.498;-73.582;2023-04-24T11:52:44;1.70;;;1.07;;
20004;SDS011;69160;45.498;-73.582;2023-04-24T11:57:43;1.23;;;1.13;;
20004;SDS011;69160;45.498;-73.582;2023-04-24T12:00:18;1.10;;;0.90;;
20004;SDS011;69160;45.498;-73.582;2023-04-24T12:02:46;1.07;;;0.97;;
20004;SDS011;69160;45.498;-73.582;2023-04-24T12:05:23;1.00;;;0.90;;
20004;SDS011;69160;45.498;-73.582;2023-04-24T12:07:52;1.10;;;0.97;;
20004;SDS011;69160;45.498;-73.582;2023-04-24T12:10:25;1.10;;;1.00;;
20004;SDS011;69160;45.498;-73.582;2023-04-24T12:12:53;1.10;;;1.00;;
20004;SDS011;69160;45.498;-73.582;2023-04-24T12:15:20;1.30;;;1.20;;
20004;SDS011;69160;45.498;-73.582;2023-04-24T12:17:48;0.73;;;0.73;;
20004;SDS011;69160;45.498;-73.582;2023-04-24T12:20:16;1.20;;;1.10;;
20004;SDS011;69160;45.498;-73.582;2023-04-24T12:25:13;2.13;;;1.10;;
20004;SDS011;69160;45.498;-73.582;2023-04-24T12:27:40;2.17;;;1.40;;
20004;SDS011;69160;45.498;-73.582;2023-04-24T12:30:10;5.10;;;1.30;;
20004;SDS011;69160;45.498;-73.582;2023-04-24T12:32:49;1.93;;;1.43;;
20004;SDS011;69160;45.498;-73.582;2023-04-24T12:35:20;3.50;;;1.80;;
20004;SDS011;69160;45.498;-73.582;2023-04-24T12:37:47;2.30;;;1.73;;
20004;SDS011;69160;45.498;-73.582;2023-04-24T12:40:14;2.23;;;1.80;;
20004;SDS011;69160;45.498;-73.582;2023-04-24T12:42:50;4.63;;;1.47;;
20004;SDS011;69160;45.498;-73.582;2023-04-24T12:45:17;1.53;;;1.43;;
20004;SDS011;69160;45.498;-73.582;2023-04-24T12:47:44;1.80;;;1.70;;
20004;SDS011;69160;45.498;-73.582;2023-04-24T12:50:12;2.00;;;1.30;;
20004;SDS011;69160;45.498;-73.582;2023-04-24T12:52:40;2.00;;;1.43;;
20004;SDS011;69160;45.498;-73.582;2023-04-24T12:55:07;2.23;;;1.37;;
20004;SDS011;69160;45.498;-73.582;2023-04-24T12:57:34;4.63;;;1.20;;
20004;SDS011;69160;45.498;-73.582;2023-04-24T13:00:02;1.10;;;1.00;;
20004;SDS011;69160;45.498;-73.582;2023-04-24T13:02:31;1.30;;;1.20;;
20004;SDS011;69160;45.498;-73.582;2023-04-24T13:04:59;2.20;;;1.63;;
20004;SDS011;69160;45.498;-73.582;2023-04-24T13:07:25;1.40;;;1.30;;
20004;SDS011;69160;45.498;-73.582;2023-04-24T13:09:52;13.60;;;2.90;;
20004;SDS011;69160;45.498;-73.582;2023-04-24T13:12:20;18.57;;;4.00;;
20004;SDS011;69160;45.498;-73.582;2023-04-24T13:14:46;15.80;;;3.87;;
20004;SDS011;69160;45.498;-73.582;2023-04-24T13:17:12;6.60;;;2.33;;
20004;SDS011;69160;45.498;-73.582;2023-04-24T13:19:40;8.47;;;2.50;;
20004;SDS011;69160;45.498;-73.582;2023-04-24T13:22:08;5.20;;;2.23;;
20004;SDS011;69160;45.498;-73.582;2023-04-24T13:24:35;2.70;;;1.60;;
20004;SDS011;69160;45.498;-73.582;2023-04-24T13:27:02;9.00;;;2.47;;
20004;SDS011;69160;45.498;-73.582;2023-04-24T13:29:29;29.27;;;4.90;;
20004;SDS011;69160;45.498;-73.582;2023-04-24T13:31:55;16.07;;;3.10;;
20004;SDS011;69160;45.498;-73.582;2023-04-24T13:34:22;10.00;;;2.47;;
20004;SDS011;69160;45.498;-73.582;2023-04-24T13:36:49;6.47;;;2.07;;
20004;SDS011;69160;45.498;-73.582;2023-04-24T13:39:16;4.10;;;2.00;;
20004;SDS011;69160;45.498;-73.582;2023-04-24T13:41:42;6.20;;;1.73;;
20004;SDS011;69160;45.498;-73.582;2023-04-24T13:44:09;5.53;;;1.70;;
20004;SDS011;69160;45.498;-73.582;2023-04-24T13:46:35;2.23;;;1.07;;
20004;SDS011;69160;45.498;-73.582;2023-04-24T13:49:02;1.33;;;1.20;;
20004;SDS011;69160;45.498;-73.582;2023-04-24T13:51:29;2.47;;;1.40;;
20004;SDS011;69160;45.498;-73.582;2023-04-24T13:53:55;4.60;;;1.37;;
20004;SDS011;69160;45.498;-73.582;2023-04-24T13:56:22;3.83;;;1.50;;
20004;SDS011;69160;45.498;-73.582;2023-04-24T13:58:48;2.20;;;0.93;;
20004;SDS011;69160;45.498;-73.582;2023-04-24T14:01:14;4.43;;;1.37;;
20004;SDS011;69160;45.498;-73.582;2023-04-24T14:03:41;4.33;;;1.27;;
20004;SDS011;69160;45.498;-73.582;2023-04-24T14:06:11;3.67;;;1.40;;
20004;SDS011;69160;45.498;-73.582;2023-04-24T14:08:37;1.60;;;1.10;;
20004;SDS011;69160;45.498;-73.582;2023-04-24T14:11:03;2.00;;;1.07;;
20004;SDS011;69160;45.498;-73.582;2023-04-24T14:13:29;1.87;;;1.13;;
20004;SDS011;69160;45.498;-73.582;2023-04-24T14:15:56;1.53;;;1.10;;
20004;SDS011;69160;45.498;-73.582;2023-04-24T14:18:23;1.20;;;0.90;;
20004;SDS011;69160;45.498;-73.582;2023-04-24T14:20:49;3.53;;;1.40;;
20004;SDS011;69160;45.498;-73.582;2023-04-24T14:23:15;6.00;;;1.53;;
20004;SDS011;69160;45.498;-73.582;2023-04-24T14:25:41;2.27;;;1.30;;
20004;SDS011;69160;45.498;-73.582;2023-04-24T14:28:09;1.83;;;1.20;;
20004;SDS011;69160;45.498;-73.582;2023-04-24T14:30:35;1.63;;;1.10;;
20004;SDS011;69160;45.498;-73.582;2023-04-24T14:33:03;1.40;;;1.13;;
20004;SDS011;69160;45.498;-73.582;2023-04-24T14:35:29;1.20;;;1.10;;